sensor_id;sensor_type;location;lat;lon;timestamp;P1;durP1;ratioP1;P2;durP2;ratioP2
54977;SDS011;40873;47.522;19.106;2023-11-19T00:01:10;11.10;;;5.78;;
54977;SDS011;40873;47.522;19.106;2023-11-19T00:03:57;10.45;;;5.68;;
54977;SDS011;40873;47.522;19.106;2023-11-19T00:06:24;9.73;;;5.40;;
54977;SDS011;40873;47.522;19.106;2023-11-19T00:08:52;12.07;;;5.15;;
54977;SDS011;40873;47.522;19.106;2023-11-19T00:11:18;10.52;;;5.85;;
54977;SDS011;40873;47.522;19.106;2023-11-19T00:13:45;12.60;;;5.53;;
54977;SDS011;40873;47.522;19.106;2023-11-19T00:16:12;10.13;;;5.22;;
54977;SDS011;40873;47.522;19.106;2023-11-19T00:18:39;14.45;;;5.97;;
54977;SDS011;40873;47.522;19.106;2023-11-19T00:21:06;12.43;;;5.82;;
54977;SDS011;40873;47.522;19.106;2023-11-19T00:23:36;9.98;;;5.43;;
54977;SDS011;40873;47.522;19.106;2023-11-19T00:26:03;8.98;;;5.22;;
54977;SDS011;40873;47.522;19.106;2023-11-19T00:28:33;11.05;;;5.85;;
54977;SDS011;40873;47.522;19.106;2023-11-19T00:31:00;10.13;;;5.45;;
54977;SDS011;40873;47.522;19.106;2023-11-19T00:33:28;14.13;;;6.50;;
54977;SDS011;40873;47.522;19.106;2023-11-19T00:35:55;10.80;;;5.75;;
54977;SDS011;40873;47.522;19.106;2023-11-19T00:38:22;12.88;;;5.80;;
54977;SDS011;40873;47.522;19.106;2023-11-19T00:40:49;12.23;;;6.07;;
54977;SDS011;40873;47.522;19.106;2023-11-19T00:43:16;10.98;;;5.53;;
54977;SDS011;40873;47.522;19.106;2023-11-19T00:45:44;10.32;;;5.65;;
54977;SDS011;40873;47.522;19.106;2023-11-19T00:48:11;11.43;;;5.90;;
54977;SDS011;40873;47.522;19.106;2023-11-19T00:50:38;12.32;;;6.43;;
54977;SDS011;40873;47.522;19.106;2023-11-19T00:53:09;11.63;;;5.90;;
54977;SDS011;40873;47.522;19.106;2023-11-19T00:55:38;10.07;;;5.40;;
54977;SDS011;40873;47.522;19.106;2023-11-19T00:58:08;12.07;;;6.25;;
54977;SDS011;40873;47.522;19.106;2023-11-19T01:00:35;11.48;;;5.75;;
54977;SDS011;40873;47.522;19.106;2023-11-19T01:03:02;10.15;;;5.75;;
54977;SDS011;40873;47.522;19.106;2023-11-19T01:05:29;11.32;;;6.28;;
54977;SDS011;40873;47.522;19.106;2023-11-19T01:07:56;12.35;;;6.10;;
54977;SDS011;40873;47.522;19.106;2023-11-19T01:10:23;12.38;;;5.78;;
54977;SDS011;40873;47.522;19.106;2023-11-19T01:12:52;11.65;;;6.28;;
54977;SDS011;40873;47.522;19.106;2023-11-19T01:15:19;11.18;;;5.82;;
54977;SDS011;40873;47.522;19.106;2023-11-19T01:17:47;11.63;;;6.47;;
54977;SDS011;40873;47.522;19.106;2023-11-19T01:20:17;10.57;;;5.88;;
54977;SDS011;40873;47.522;19.106;2023-11-19T01:22:44;9.93;;;5.50;;
54977;SDS011;40873;47.522;19.106;2023-11-19T01:25:11;11.43;;;5.40;;
54977;SDS011;40873;47.522;19.106;2023-11-19T01:27:38;11.90;;;5.72;;
54977;SDS011;40873;47.522;19.106;2023-11-19T01:30:05;10.90;;;6.30;;
54977;SDS011;40873;47.522;19.106;2023-11-19T01:32:36;11.30;;;6.53;;
54977;SDS011;40873;47.522;19.106;2023-11-19T01:35:03;14.85;;;6.47;;
54977;SDS011;40873;47.522;19.106;2023-11-19T01:37:31;12.07;;;6.22;;
54977;SDS011;40873;47.522;19.106;2023-11-19T01:39:58;10.93;;;6.15;;
54977;SDS011;40873;47.522;19.106;2023-11-19T01:42:26;10.80;;;6.78;;
54977;SDS011;40873;47.522;19.106;2023-11-19T01:45:00;12.15;;;6.38;;
54977;SDS011;40873;47.522;19.106;2023-11-19T01:47:28;14.23;;;6.03;;
54977;SDS011;40873;47.522;19.106;2023-11-19T01:49:56;12.20;;;5.85;;
54977;SDS011;40873;47.522;19.106;2023-11-19T01:52:24;14.50;;;5.80;;
54977;SDS011;40873;47.522;19.106;2023-11-19T01:54:52;13.35;;;6.90;;
54977;SDS011;40873;47.522;19.106;2023-11-19T01:57:21;12.95;;;6.97;;
54977;SDS011;40873;47.522;19.106;2023-11-19T01:59:50;15.63;;;7.13;;
54977;SDS011;40873;47.522;19.106;2023-11-19T02:02:19;14.82;;;6.55;;
54977;SDS011;40873;47.522;19.106;2023-11-19T02:04:49;15.90;;;8.07;;
54977;SDS011;40873;47.522;19.106;2023-11-19T02:07:18;12.57;;;6.40;;
54977;SDS011;40873;47.522;19.106;2023-11-19T02:09:45;12.70;;;7.10;;
54977;SDS011;40873;47.522;19.106;2023-11-19T02:12:12;13.55;;;7.40;;
54977;SDS011;40873;47.522;19.106;2023-11-19T02:14:39;13.05;;;7.63;;
54977;SDS011;40873;47.522;19.106;2023-11-19T02:17:24;14.98;;;7.07;;
54977;SDS011;40873;47.522;19.106;2023-11-19T02:19:55;11.43;;;6.80;;
54977;SDS011;40873;47.522;19.106;2023-11-19T02:22:22;14.43;;;7.25;;
54977;SDS011;40873;47.522;19.106;2023-11-19T02:24:49;12.50;;;6.72;;
54977;SDS011;40873;47.522;19.106;2023-11-19T02:29:53;16.13;;;7.55;;
54977;SDS011;40873;47.522;19.106;2023-11-19T02:32:20;14.00;;;7.45;;
54977;SDS011;40873;47.522;19.106;2023-11-19T02:34:47;15.23;;;6.70;;
54977;SDS011;40873;47.522;19.106;2023-11-19T02:37:14;13.20;;;7.45;;
54977;SDS011;40873;47.522;19.106;2023-11-19T02:39:41;16.10;;;7.60;;
54977;SDS011;40873;47.522;19.106;2023-11-19T02:42:08;17.98;;;8.65;;
54977;SDS011;40873;47.522;19.106;2023-11-19T02:44:36;15.80;;;7.53;;
54977;SDS011;40873;47.522;19.106;2023-11-19T02:47:05;18.77;;;8.15;;
54977;SDS011;40873;47.522;19.106;2023-11-19T02:49:34;13.98;;;6.88;;
54977;SDS011;40873;47.522;19.106;2023-11-19T02:52:03;15.10;;;7.85;;
54977;SDS011;40873;47.522;19.106;2023-11-19T02:54:32;21.17;;;8.82;;
54977;SDS011;40873;47.522;19.106;2023-11-19T02:57:01;15.73;;;8.23;;
54977;SDS011;40873;47.522;19.106;2023-11-19T02:59:30;15.07;;;7.82;;
54977;SDS011;40873;47.522;19.106;2023-11-19T03:02:06;22.73;;;9.07;;
54977;SDS011;40873;47.522;19.106;2023-11-19T03:04:33;15.60;;;8.00;;
54977;SDS011;40873;47.522;19.106;2023-11-19T03:07:01;17.70;;;8.50;;
54977;SDS011;40873;47.522;19.106;2023-11-19T03:09:28;17.02;;;8.77;;
54977;SDS011;40873;47.522;19.106;2023-11-19T03:11:56;17.67;;;9.65;;
54977;SDS011;40873;47.522;19.106;2023-11-19T03:14:26;17.35;;;8.80;;
54977;SDS011;40873;47.522;19.106;2023-11-19T03:16:53;15.43;;;8.82;;
54977;SDS011;40873;47.522;19.106;2023-11-19T03:19:20;18.60;;;9.15;;
54977;SDS011;40873;47.522;19.106;2023-11-19T03:21:50;17.50;;;9.35;;
54977;SDS011;40873;47.522;19.106;2023-11-19T03:24:17;16.02;;;8.30;;
54977;SDS011;40873;47.522;19.106;2023-11-19T03:26:48;16.98;;;8.65;;
54977;SDS011;40873;47.522;19.106;2023-11-19T03:29:16;14.88;;;7.82;;
54977;SDS011;40873;47.522;19.106;2023-11-19T03:31:44;19.30;;;9.00;;
54977;SDS011;40873;47.522;19.106;2023-11-19T03:34:14;17.98;;;9.88;;
54977;SDS011;40873;47.522;19.106;2023-11-19T03:36:41;18.60;;;9.65;;
54977;SDS011;40873;47.522;19.106;2023-11-19T03:39:08;16.75;;;9.50;;
54977;SDS011;40873;47.522;19.106;2023-11-19T03:41:35;18.15;;;10.82;;
54977;SDS011;40873;47.522;19.106;2023-11-19T03:44:04;21.25;;;10.05;;
54977;SDS011;40873;47.522;19.106;2023-11-19T03:46:32;19.30;;;9.05;;
54977;SDS011;40873;47.522;19.106;2023-11-19T03:48:59;21.45;;;9.30;;
54977;SDS011;40873;47.522;19.106;2023-11-19T03:51:26;19.95;;;10.52;;
54977;SDS011;40873;47.522;19.106;2023-11-19T03:53:53;18.30;;;9.60;;
54977;SDS011;40873;47.522;19.106;2023-11-19T03:56:20;18.40;;;10.00;;
54977;SDS011;40873;47.522;19.106;2023-11-19T03:58:47;18.00;;;10.02;;
54977;SDS011;40873;47.522;19.106;2023-11-19T04:01:14;16.77;;;8.10;;
54977;SDS011;40873;47.522;19.106;2023-11-19T04:03:42;16.98;;;9.82;;
54977;SDS011;40873;47.522;19.106;2023-11-19T04:06:12;20.80;;;10.48;;
54977;SDS011;40873;47.522;19.106;2023-11-19T04:08:39;22.40;;;11.02;;
54977;SDS011;40873;47.522;19.106;2023-11-19T04:11:06;20.20;;;9.85;;
54977;SDS011;40873;47.522;19.106;2023-11-19T04:13:33;17.58;;;8.90;;
54977;SDS011;40873;47.522;19.106;2023-11-19T04:16:00;19.58;;;9.65;;
54977;SDS011;40873;47.522;19.106;2023-11-19T04:18:28;17.27;;;9.25;;
54977;SDS011;40873;47.522;19.106;2023-11-19T04:20:55;19.27;;;9.40;;
54977;SDS011;40873;47.522;19.106;2023-11-19T04:23:22;19.67;;;9.50;;
54977;SDS011;40873;47.522;19.106;2023-11-19T04:25:51;17.33;;;8.93;;
54977;SDS011;40873;47.522;19.106;2023-11-19T04:28:18;16.52;;;9.13;;
54977;SDS011;40873;47.522;19.106;2023-11-19T04:30:45;18.63;;;9.70;;
54977;SDS011;40873;47.522;19.106;2023-11-19T04:33:12;19.38;;;9.48;;
54977;SDS011;40873;47.522;19.106;2023-11-19T04:35:39;18.27;;;9.35;;
54977;SDS011;40873;47.522;19.106;2023-11-19T04:38:06;17.27;;;9.80;;
54977;SDS011;40873;47.522;19.106;2023-11-19T04:40:33;22.83;;;10.00;;
54977;SDS011;40873;47.522;19.106;2023-11-19T04:43:00;20.35;;;10.35;;
54977;SDS011;40873;47.522;19.106;2023-11-19T04:45:27;19.25;;;9.50;;
54977;SDS011;40873;47.522;19.106;2023-11-19T04:47:54;19.67;;;10.90;;
54977;SDS011;40873;47.522;19.106;2023-11-19T04:50:21;20.45;;;9.98;;
54977;SDS011;40873;47.522;19.106;2023-11-19T04:52:48;19.33;;;10.10;;
54977;SDS011;40873;47.522;19.106;2023-11-19T04:55:15;23.08;;;9.23;;
54977;SDS011;40873;47.522;19.106;2023-11-19T04:57:42;20.98;;;9.90;;
54977;SDS011;40873;47.522;19.106;2023-11-19T05:00:12;21.50;;;10.57;;
54977;SDS011;40873;47.522;19.106;2023-11-19T05:02:43;18.98;;;8.50;;
54977;SDS011;40873;47.522;19.106;2023-11-19T05:05:10;18.20;;;9.70;;
54977;SDS011;40873;47.522;19.106;2023-11-19T05:07:38;20.73;;;10.27;;
54977;SDS011;40873;47.522;19.106;2023-11-19T05:10:05;16.92;;;9.68;;
54977;SDS011;40873;47.522;19.106;2023-11-19T05:12:33;17.10;;;9.60;;
54977;SDS011;40873;47.522;19.106;2023-11-19T05:15:00;18.17;;;10.70;;
54977;SDS011;40873;47.522;19.106;2023-11-19T05:17:27;19.65;;;9.52;;
54977;SDS011;40873;47.522;19.106;2023-11-19T05:19:55;20.02;;;10.15;;
54977;SDS011;40873;47.522;19.106;2023-11-19T05:22:21;19.08;;;9.73;;
54977;SDS011;40873;47.522;19.106;2023-11-19T05:24:49;23.38;;;10.02;;
54977;SDS011;40873;47.522;19.106;2023-11-19T05:27:16;17.90;;;9.50;;
54977;SDS011;40873;47.522;19.106;2023-11-19T05:29:43;18.67;;;9.70;;
54977;SDS011;40873;47.522;19.106;2023-11-19T05:32:10;17.40;;;9.93;;
54977;SDS011;40873;47.522;19.106;2023-11-19T05:34:38;18.45;;;10.35;;
54977;SDS011;40873;47.522;19.106;2023-11-19T05:37:17;17.67;;;9.50;;
54977;SDS011;40873;47.522;19.106;2023-11-19T05:39:45;21.95;;;10.40;;
54977;SDS011;40873;47.522;19.106;2023-11-19T05:42:12;18.00;;;9.95;;
54977;SDS011;40873;47.522;19.106;2023-11-19T05:44:42;20.63;;;10.18;;
54977;SDS011;40873;47.522;19.106;2023-11-19T05:47:09;20.95;;;10.30;;
54977;SDS011;40873;47.522;19.106;2023-11-19T05:49:36;19.70;;;9.90;;
54977;SDS011;40873;47.522;19.106;2023-11-19T05:52:03;19.48;;;9.63;;
54977;SDS011;40873;47.522;19.106;2023-11-19T05:54:35;18.55;;;10.18;;
54977;SDS011;40873;47.522;19.106;2023-11-19T05:57:04;21.17;;;10.75;;
54977;SDS011;40873;47.522;19.106;2023-11-19T05:59:32;17.20;;;10.00;;
54977;SDS011;40873;47.522;19.106;2023-11-19T06:01:59;21.00;;;9.60;;
54977;SDS011;40873;47.522;19.106;2023-11-19T06:04:26;21.40;;;10.63;;
54977;SDS011;40873;47.522;19.106;2023-11-19T06:06:53;22.38;;;10.82;;
54977;SDS011;40873;47.522;19.106;2023-11-19T06:09:21;23.17;;;11.38;;
54977;SDS011;40873;47.522;19.106;2023-11-19T06:11:50;25.00;;;11.57;;
54977;SDS011;40873;47.522;19.106;2023-11-19T06:14:18;22.98;;;11.52;;
54977;SDS011;40873;47.522;19.106;2023-11-19T06:16:45;23.38;;;10.60;;
54977;SDS011;40873;47.522;19.106;2023-11-19T06:19:12;19.83;;;10.18;;
54977;SDS011;40873;47.522;19.106;2023-11-19T06:21:39;22.30;;;12.25;;
54977;SDS011;40873;47.522;19.106;2023-11-19T06:24:06;20.73;;;11.23;;
54977;SDS011;40873;47.522;19.106;2023-11-19T06:26:35;21.30;;;11.80;;
54977;SDS011;40873;47.522;19.106;2023-11-19T06:29:02;22.08;;;10.73;;
54977;SDS011;40873;47.522;19.106;2023-11-19T06:31:29;23.40;;;11.73;;
54977;SDS011;40873;47.522;19.106;2023-11-19T06:33:56;21.65;;;11.90;;
54977;SDS011;40873;47.522;19.106;2023-11-19T06:36:23;22.90;;;11.43;;
54977;SDS011;40873;47.522;19.106;2023-11-19T06:38:50;25.50;;;11.32;;
54977;SDS011;40873;47.522;19.106;2023-11-19T06:41:17;24.02;;;11.43;;
54977;SDS011;40873;47.522;19.106;2023-11-19T06:43:44;23.33;;;10.73;;
54977;SDS011;40873;47.522;19.106;2023-11-19T06:46:14;22.95;;;11.10;;
54977;SDS011;40873;47.522;19.106;2023-11-19T06:48:42;20.67;;;11.10;;
54977;SDS011;40873;47.522;19.106;2023-11-19T06:51:11;19.73;;;10.82;;
54977;SDS011;40873;47.522;19.106;2023-11-19T06:53:38;21.52;;;11.52;;
54977;SDS011;40873;47.522;19.106;2023-11-19T06:56:21;22.83;;;11.77;;
54977;SDS011;40873;47.522;19.106;2023-11-19T06:58:51;19.65;;;10.98;;
54977;SDS011;40873;47.522;19.106;2023-11-19T07:01:18;19.77;;;11.57;;
54977;SDS011;40873;47.522;19.106;2023-11-19T07:03:46;23.10;;;12.13;;
54977;SDS011;40873;47.522;19.106;2023-11-19T07:06:13;24.52;;;12.57;;
54977;SDS011;40873;47.522;19.106;2023-11-19T07:08:41;26.52;;;12.23;;
54977;SDS011;40873;47.522;19.106;2023-11-19T07:11:12;24.58;;;12.00;;
54977;SDS011;40873;47.522;19.106;2023-11-19T07:13:44;23.02;;;11.75;;
54977;SDS011;40873;47.522;19.106;2023-11-19T07:16:13;25.67;;;13.32;;
54977;SDS011;40873;47.522;19.106;2023-11-19T07:18:41;24.45;;;12.63;;
54977;SDS011;40873;47.522;19.106;2023-11-19T07:21:10;24.38;;;12.27;;
54977;SDS011;40873;47.522;19.106;2023-11-19T07:23:37;23.23;;;11.88;;
54977;SDS011;40873;47.522;19.106;2023-11-19T07:26:04;22.17;;;10.32;;
54977;SDS011;40873;47.522;19.106;2023-11-19T07:28:35;20.20;;;10.43;;
54977;SDS011;40873;47.522;19.106;2023-11-19T07:31:02;19.73;;;11.27;;
54977;SDS011;40873;47.522;19.106;2023-11-19T07:33:29;22.48;;;11.93;;
54977;SDS011;40873;47.522;19.106;2023-11-19T07:35:56;20.45;;;9.70;;
54977;SDS011;40873;47.522;19.106;2023-11-19T07:38:23;19.77;;;10.80;;
54977;SDS011;40873;47.522;19.106;2023-11-19T07:40:50;18.55;;;9.15;;
54977;SDS011;40873;47.522;19.106;2023-11-19T07:43:20;20.02;;;10.30;;
54977;SDS011;40873;47.522;19.106;2023-11-19T07:45:47;21.05;;;10.95;;
54977;SDS011;40873;47.522;19.106;2023-11-19T07:48:14;20.58;;;10.10;;
54977;SDS011;40873;47.522;19.106;2023-11-19T07:50:42;20.40;;;10.13;;
54977;SDS011;40873;47.522;19.106;2023-11-19T07:53:09;20.77;;;10.77;;
54977;SDS011;40873;47.522;19.106;2023-11-19T07:55:36;21.77;;;10.80;;
54977;SDS011;40873;47.522;19.106;2023-11-19T07:58:08;19.98;;;9.80;;
54977;SDS011;40873;47.522;19.106;2023-11-19T08:00:35;21.50;;;10.73;;
54977;SDS011;40873;47.522;19.106;2023-11-19T08:03:02;21.40;;;10.23;;
54977;SDS011;40873;47.522;19.106;2023-11-19T08:05:29;22.70;;;10.95;;
54977;SDS011;40873;47.522;19.106;2023-11-19T08:07:57;23.30;;;10.73;;
54977;SDS011;40873;47.522;19.106;2023-11-19T08:10:24;24.27;;;12.15;;
54977;SDS011;40873;47.522;19.106;2023-11-19T08:12:51;19.27;;;10.63;;
54977;SDS011;40873;47.522;19.106;2023-11-19T08:15:18;22.25;;;10.63;;
54977;SDS011;40873;47.522;19.106;2023-11-19T08:17:58;23.10;;;11.57;;
54977;SDS011;40873;47.522;19.106;2023-11-19T08:20:25;16.88;;;10.10;;
54977;SDS011;40873;47.522;19.106;2023-11-19T08:22:52;21.27;;;10.43;;
54977;SDS011;40873;47.522;19.106;2023-11-19T08:25:19;21.08;;;10.93;;
54977;SDS011;40873;47.522;19.106;2023-11-19T08:27:46;20.80;;;10.32;;
54977;SDS011;40873;47.522;19.106;2023-11-19T08:30:13;20.17;;;10.38;;
54977;SDS011;40873;47.522;19.106;2023-11-19T08:32:40;21.38;;;10.15;;
54977;SDS011;40873;47.522;19.106;2023-11-19T08:35:07;23.65;;;11.38;;
54977;SDS011;40873;47.522;19.106;2023-11-19T08:37:35;20.65;;;10.98;;
54977;SDS011;40873;47.522;19.106;2023-11-19T08:40:04;18.63;;;9.38;;
54977;SDS011;40873;47.522;19.106;2023-11-19T08:42:31;21.30;;;10.43;;
54977;SDS011;40873;47.522;19.106;2023-11-19T08:44:58;17.42;;;10.15;;
54977;SDS011;40873;47.522;19.106;2023-11-19T08:47:25;21.35;;;11.10;;
54977;SDS011;40873;47.522;19.106;2023-11-19T08:49:52;25.60;;;10.93;;
54977;SDS011;40873;47.522;19.106;2023-11-19T08:52:23;22.20;;;10.40;;
54977;SDS011;40873;47.522;19.106;2023-11-19T08:54:52;23.38;;;10.48;;
54977;SDS011;40873;47.522;19.106;2023-11-19T08:57:19;21.77;;;11.27;;
54977;SDS011;40873;47.522;19.106;2023-11-19T08:59:47;19.60;;;10.73;;
54977;SDS011;40873;47.522;19.106;2023-11-19T09:02:14;23.63;;;10.32;;
54977;SDS011;40873;47.522;19.106;2023-11-19T09:04:41;20.00;;;11.00;;
54977;SDS011;40873;47.522;19.106;2023-11-19T09:07:08;21.60;;;10.20;;
54977;SDS011;40873;47.522;19.106;2023-11-19T09:09:36;17.45;;;9.73;;
54977;SDS011;40873;47.522;19.106;2023-11-19T09:12:03;23.17;;;11.50;;
54977;SDS011;40873;47.522;19.106;2023-11-19T09:14:30;20.70;;;11.55;;
54977;SDS011;40873;47.522;19.106;2023-11-19T09:16:57;20.40;;;11.48;;
54977;SDS011;40873;47.522;19.106;2023-11-19T09:19:25;20.77;;;11.88;;
54977;SDS011;40873;47.522;19.106;2023-11-19T09:21:53;17.13;;;10.65;;
54977;SDS011;40873;47.522;19.106;2023-11-19T09:24:20;20.73;;;11.05;;
54977;SDS011;40873;47.522;19.106;2023-11-19T09:26:50;20.80;;;10.85;;
54977;SDS011;40873;47.522;19.106;2023-11-19T09:29:17;21.85;;;10.93;;
54977;SDS011;40873;47.522;19.106;2023-11-19T09:31:44;17.17;;;10.15;;
54977;SDS011;40873;47.522;19.106;2023-11-19T09:34:11;20.38;;;11.27;;
54977;SDS011;40873;47.522;19.106;2023-11-19T09:36:39;20.08;;;10.57;;
54977;SDS011;40873;47.522;19.106;2023-11-19T09:39:11;17.05;;;10.27;;
54977;SDS011;40873;47.522;19.106;2023-11-19T09:41:39;18.42;;;10.55;;
54977;SDS011;40873;47.522;19.106;2023-11-19T09:44:07;18.38;;;10.15;;
54977;SDS011;40873;47.522;19.106;2023-11-19T09:46:36;19.27;;;10.80;;
54977;SDS011;40873;47.522;19.106;2023-11-19T09:49:03;19.48;;;11.43;;
54977;SDS011;40873;47.522;19.106;2023-11-19T09:51:31;21.13;;;10.65;;
54977;SDS011;40873;47.522;19.106;2023-11-19T09:53:58;20.73;;;11.57;;
54977;SDS011;40873;47.522;19.106;2023-11-19T09:56:25;18.70;;;10.80;;
54977;SDS011;40873;47.522;19.106;2023-11-19T09:58:55;23.20;;;11.43;;
54977;SDS011;40873;47.522;19.106;2023-11-19T10:01:23;19.25;;;10.75;;
54977;SDS011;40873;47.522;19.106;2023-11-19T10:03:55;19.58;;;10.50;;
54977;SDS011;40873;47.522;19.106;2023-11-19T10:06:23;20.60;;;11.25;;
54977;SDS011;40873;47.522;19.106;2023-11-19T10:08:53;19.67;;;10.57;;
54977;SDS011;40873;47.522;19.106;2023-11-19T10:11:20;23.70;;;11.73;;
54977;SDS011;40873;47.522;19.106;2023-11-19T10:13:47;18.92;;;10.85;;
54977;SDS011;40873;47.522;19.106;2023-11-19T10:16:17;19.83;;;11.20;;
54977;SDS011;40873;47.522;19.106;2023-11-19T10:18:47;20.35;;;10.38;;
54977;SDS011;40873;47.522;19.106;2023-11-19T10:21:18;19.63;;;11.15;;
54977;SDS011;40873;47.522;19.106;2023-11-19T10:24:07;19.95;;;11.10;;
54977;SDS011;40873;47.522;19.106;2023-11-19T10:26:35;18.40;;;10.60;;
54977;SDS011;40873;47.522;19.106;2023-11-19T10:29:03;19.80;;;10.88;;
54977;SDS011;40873;47.522;19.106;2023-11-19T10:31:31;24.38;;;11.50;;
54977;SDS011;40873;47.522;19.106;2023-11-19T10:33:58;18.95;;;10.23;;
54977;SDS011;40873;47.522;19.106;2023-11-19T10:36:40;20.13;;;10.10;;
54977;SDS011;40873;47.522;19.106;2023-11-19T10:39:07;21.67;;;10.77;;
54977;SDS011;40873;47.522;19.106;2023-11-19T10:41:36;20.35;;;11.40;;
54977;SDS011;40873;47.522;19.106;2023-11-19T10:44:03;20.55;;;11.18;;
54977;SDS011;40873;47.522;19.106;2023-11-19T10:46:39;21.13;;;11.48;;
54977;SDS011;40873;47.522;19.106;2023-11-19T10:49:08;19.00;;;11.30;;
54977;SDS011;40873;47.522;19.106;2023-11-19T10:51:36;19.17;;;11.52;;
54977;SDS011;40873;47.522;19.106;2023-11-19T10:54:03;19.83;;;11.13;;
54977;SDS011;40873;47.522;19.106;2023-11-19T10:56:34;21.23;;;11.23;;
54977;SDS011;40873;47.522;19.106;2023-11-19T10:59:02;18.33;;;10.48;;
54977;SDS011;40873;47.522;19.106;2023-11-19T11:01:50;20.08;;;10.82;;
54977;SDS011;40873;47.522;19.106;2023-11-19T11:04:24;18.95;;;11.45;;
54977;SDS011;40873;47.522;19.106;2023-11-19T11:06:55;21.38;;;11.27;;
54977;SDS011;40873;47.522;19.106;2023-11-19T11:09:26;18.48;;;10.52;;
54977;SDS011;40873;47.522;19.106;2023-11-19T11:11:54;21.00;;;12.02;;
54977;SDS011;40873;47.522;19.106;2023-11-19T11:14:26;16.77;;;11.07;;
54977;SDS011;40873;47.522;19.106;2023-11-19T11:16:54;19.58;;;11.60;;
54977;SDS011;40873;47.522;19.106;2023-11-19T11:19:23;21.65;;;10.57;;
54977;SDS011;40873;47.522;19.106;2023-11-19T11:21:50;18.50;;;10.50;;
54977;SDS011;40873;47.522;19.106;2023-11-19T11:38:28;14.75;;;8.60;;
54977;SDS011;40873;47.522;19.106;2023-11-19T11:43:57;14.57;;;8.63;;
54977;SDS011;40873;47.522;19.106;2023-11-19T11:49:04;15.57;;;9.18;;
54977;SDS011;40873;47.522;19.106;2023-11-19T11:57:01;18.40;;;10.23;;
54977;SDS011;40873;47.522;19.106;2023-11-19T11:59:47;19.42;;;10.00;;
54977;SDS011;40873;47.522;19.106;2023-11-19T12:02:15;19.00;;;10.63;;
54977;SDS011;40873;47.522;19.106;2023-11-19T12:04:49;18.27;;;10.38;;
54977;SDS011;40873;47.522;19.106;2023-11-19T12:07:22;17.67;;;10.98;;
54977;SDS011;40873;47.522;19.106;2023-11-19T12:09:52;19.23;;;10.73;;
54977;SDS011;40873;47.522;19.106;2023-11-19T12:12:23;19.02;;;11.70;;
54977;SDS011;40873;47.522;19.106;2023-11-19T12:15:03;20.90;;;10.80;;
54977;SDS011;40873;47.522;19.106;2023-11-19T12:17:43;20.05;;;11.13;;
54977;SDS011;40873;47.522;19.106;2023-11-19T12:20:23;19.00;;;9.48;;
54977;SDS011;40873;47.522;19.106;2023-11-19T12:22:55;21.45;;;11.10;;
54977;SDS011;40873;47.522;19.106;2023-11-19T12:25:22;20.23;;;11.23;;
54977;SDS011;40873;47.522;19.106;2023-11-19T12:27:50;20.02;;;10.40;;
54977;SDS011;40873;47.522;19.106;2023-11-19T12:32:51;15.27;;;8.85;;
54977;SDS011;40873;47.522;19.106;2023-11-19T12:35:20;16.65;;;10.05;;
54977;SDS011;40873;47.522;19.106;2023-11-19T12:37:48;13.73;;;7.82;;
54977;SDS011;40873;47.522;19.106;2023-11-19T12:40:18;17.83;;;9.02;;
54977;SDS011;40873;47.522;19.106;2023-11-19T12:42:50;18.33;;;9.50;;
54977;SDS011;40873;47.522;19.106;2023-11-19T12:45:20;18.42;;;9.48;;
54977;SDS011;40873;47.522;19.106;2023-11-19T12:47:49;18.55;;;10.05;;
54977;SDS011;40873;47.522;19.106;2023-11-19T12:50:19;20.10;;;10.65;;
54977;SDS011;40873;47.522;19.106;2023-11-19T12:52:55;17.40;;;10.40;;
54977;SDS011;40873;47.522;19.106;2023-11-19T12:55:25;18.83;;;9.70;;
54977;SDS011;40873;47.522;19.106;2023-11-19T12:57:55;21.23;;;10.82;;
54977;SDS011;40873;47.522;19.106;2023-11-19T13:00:23;22.00;;;11.30;;
54977;SDS011;40873;47.522;19.106;2023-11-19T13:02:52;19.83;;;10.65;;
54977;SDS011;40873;47.522;19.106;2023-11-19T13:05:25;19.30;;;10.57;;
54977;SDS011;40873;47.522;19.106;2023-11-19T13:08:03;18.33;;;9.45;;
54977;SDS011;40873;47.522;19.106;2023-11-19T13:15:35;20.27;;;10.63;;
54977;SDS011;40873;47.522;19.106;2023-11-19T13:18:02;18.88;;;9.55;;
54977;SDS011;40873;47.522;19.106;2023-11-19T13:20:29;16.27;;;8.43;;
54977;SDS011;40873;47.522;19.106;2023-11-19T13:22:57;15.15;;;8.50;;
54977;SDS011;40873;47.522;19.106;2023-11-19T13:25:26;12.35;;;7.30;;
54977;SDS011;40873;47.522;19.106;2023-11-19T13:27:54;16.63;;;8.80;;
54977;SDS011;40873;47.522;19.106;2023-11-19T13:30:22;12.20;;;7.90;;
54977;SDS011;40873;47.522;19.106;2023-11-19T13:32:53;13.85;;;7.93;;
54977;SDS011;40873;47.522;19.106;2023-11-19T13:35:22;15.40;;;8.20;;
54977;SDS011;40873;47.522;19.106;2023-11-19T13:37:49;13.82;;;8.35;;
54977;SDS011;40873;47.522;19.106;2023-11-19T13:40:16;13.15;;;7.93;;
54977;SDS011;40873;47.522;19.106;2023-11-19T13:42:44;12.10;;;7.63;;
54977;SDS011;40873;47.522;19.106;2023-11-19T13:45:11;15.55;;;7.55;;
54977;SDS011;40873;47.522;19.106;2023-11-19T13:47:40;12.48;;;6.85;;
54977;SDS011;40873;47.522;19.106;2023-11-19T13:52:37;17.10;;;7.95;;
54977;SDS011;40873;47.522;19.106;2023-11-19T13:55:06;12.35;;;6.53;;
54977;SDS011;40873;47.522;19.106;2023-11-19T13:57:41;13.65;;;6.85;;
54977;SDS011;40873;47.522;19.106;2023-11-19T14:00:09;12.60;;;6.82;;
54977;SDS011;40873;47.522;19.106;2023-11-19T14:02:43;12.82;;;7.20;;
54977;SDS011;40873;47.522;19.106;2023-11-19T14:05:10;12.80;;;6.78;;
54977;SDS011;40873;47.522;19.106;2023-11-19T14:07:41;14.52;;;7.22;;
54977;SDS011;40873;47.522;19.106;2023-11-19T14:10:09;13.68;;;7.32;;
54977;SDS011;40873;47.522;19.106;2023-11-19T14:12:37;15.20;;;7.85;;
54977;SDS011;40873;47.522;19.106;2023-11-19T14:15:08;15.32;;;6.72;;
54977;SDS011;40873;47.522;19.106;2023-11-19T14:17:36;15.82;;;8.32;;
54977;SDS011;40873;47.522;19.106;2023-11-19T14:20:03;13.45;;;6.65;;
54977;SDS011;40873;47.522;19.106;2023-11-19T14:22:40;12.48;;;6.25;;
54977;SDS011;40873;47.522;19.106;2023-11-19T14:25:07;11.95;;;6.68;;
54977;SDS011;40873;47.522;19.106;2023-11-19T14:27:39;16.35;;;8.45;;
54977;SDS011;40873;47.522;19.106;2023-11-19T14:30:08;13.25;;;7.95;;
54977;SDS011;40873;47.522;19.106;2023-11-19T14:32:41;11.80;;;6.93;;
54977;SDS011;40873;47.522;19.106;2023-11-19T14:35:11;13.55;;;7.85;;
54977;SDS011;40873;47.522;19.106;2023-11-19T14:37:38;16.80;;;8.45;;
54977;SDS011;40873;47.522;19.106;2023-11-19T14:40:05;12.88;;;7.20;;
54977;SDS011;40873;47.522;19.106;2023-11-19T14:42:36;15.30;;;7.70;;
54977;SDS011;40873;47.522;19.106;2023-11-19T14:45:04;15.32;;;7.97;;
54977;SDS011;40873;47.522;19.106;2023-11-19T14:47:31;14.82;;;8.30;;
54977;SDS011;40873;47.522;19.106;2023-11-19T14:49:58;16.88;;;8.73;;
54977;SDS011;40873;47.522;19.106;2023-11-19T14:52:25;17.95;;;9.18;;
54977;SDS011;40873;47.522;19.106;2023-11-19T14:54:52;15.32;;;8.50;;
54977;SDS011;40873;47.522;19.106;2023-11-19T14:57:20;17.30;;;9.05;;
54977;SDS011;40873;47.522;19.106;2023-11-19T14:59:48;17.02;;;9.00;;
54977;SDS011;40873;47.522;19.106;2023-11-19T15:02:14;14.48;;;8.82;;